South River, New Jersey
Current Conditions -  °F | °C
As of 7:35 PM on Sunday 25 Jan 2015 (Local Time) from KLDJ Reporting Station
Overcast Overcast  
Wind Chill: 35°   Ceiling: 5000
Heat Index: 39°   Visibility: 10mi
Dew Point: 13°   Wind: 6mph
Humidity: 34%   Direction: 10°N
Pressure: 29.95"   Gusts: NA
Location:  40.45°N, 74.38°W
Report Text: KLDJ 260035Z AUTO 01005KT 10SM OVC050 04/M11 A2995 RMK AO2 T00391107
Loading
Personal Weather Stations






























Interactive Weather Map New forecast layout! Learn more

10-Day Weather Forecast

Advertisements
Track Severe Weather on mobile